sensor_id;sensor_type;location;lat;lon;timestamp;temperature;humidity
70300;HTU21D;57704;51.112;5.878;2022-10-23T00:02:01;14.89;74.99
70300;HTU21D;57704;51.112;5.878;2022-10-23T00:04:27;14.88;75.02
70300;HTU21D;57704;51.112;5.878;2022-10-23T00:06:54;14.86;75.18
70300;HTU21D;57704;51.112;5.878;2022-10-23T00:09:22;14.82;75.16
70300;HTU21D;57704;51.112;5.878;2022-10-23T00:11:49;14.79;75.29
70300;HTU21D;57704;51.112;5.878;2022-10-23T00:14:20;14.74;75.38
70300;HTU21D;57704;51.112;5.878;2022-10-23T00:16:46;14.71;75.50
70300;HTU21D;57704;51.112;5.878;2022-10-23T00:19:12;14.69;75.55
70300;HTU21D;57704;51.112;5.878;2022-10-23T00:21:38;14.66;75.68
70300;HTU21D;57704;51.112;5.878;2022-10-23T00:24:05;14.62;75.87
70300;HTU21D;57704;51.112;5.878;2022-10-23T00:26:33;14.63;75.89
70300;HTU21D;57704;51.112;5.878;2022-10-23T00:28:59;14.62;75.92
70300;HTU21D;57704;51.112;5.878;2022-10-23T00:31:25;14.60;75.91
70300;HTU21D;57704;51.112;5.878;2022-10-23T00:33:52;14.57;75.93
70300;HTU21D;57704;51.112;5.878;2022-10-23T00:36:20;14.56;75.99
70300;HTU21D;57704;51.112;5.878;2022-10-23T00:38:46;14.54;75.97
70300;HTU21D;57704;51.112;5.878;2022-10-23T00:41:19;14.52;76.02
70300;HTU21D;57704;51.112;5.878;2022-10-23T00:44:01;14.51;76.21
70300;HTU21D;57704;51.112;5.878;2022-10-23T00:46:27;14.50;76.28
70300;HTU21D;57704;51.112;5.878;2022-10-23T00:48:55;14.47;76.31
70300;HTU21D;57704;51.112;5.878;2022-10-23T00:51:22;14.45;76.39
70300;HTU21D;57704;51.112;5.878;2022-10-23T00:53:54;14.42;76.61
70300;HTU21D;57704;51.112;5.878;2022-10-23T00:56:21;14.39;76.70
70300;HTU21D;57704;51.112;5.878;2022-10-23T00:58:49;14.37;76.82
70300;HTU21D;57704;51.112;5.878;2022-10-23T01:01:19;14.36;76.89
70300;HTU21D;57704;51.112;5.878;2022-10-23T01:03:46;14.34;76.98
70300;HTU21D;57704;51.112;5.878;2022-10-23T01:06:33;14.36;77.05
70300;HTU21D;57704;51.112;5.878;2022-10-23T01:12:00;14.35;77.03
70300;HTU21D;57704;51.112;5.878;2022-10-23T01:14:43;14.36;77.07
70300;HTU21D;57704;51.112;5.878;2022-10-23T01:30:58;14.25;77.72
70300;HTU21D;57704;51.112;5.878;2022-10-23T01:33:39;14.25;77.69
70300;HTU21D;57704;51.112;5.878;2022-10-23T01:36:14;14.24;77.74
70300;HTU21D;57704;51.112;5.878;2022-10-23T01:38:52;14.24;77.74
70300;HTU21D;57704;51.112;5.878;2022-10-23T01:41:40;14.25;77.81
70300;HTU21D;57704;51.112;5.878;2022-10-23T01:44:33;14.26;77.78
70300;HTU21D;57704;51.112;5.878;2022-10-23T01:47:04;14.28;77.70
70300;HTU21D;57704;51.112;5.878;2022-10-23T01:49:39;14.29;77.74
70300;HTU21D;57704;51.112;5.878;2022-10-23T01:52:10;14.28;77.74
70300;HTU21D;57704;51.112;5.878;2022-10-23T01:54:42;14.27;77.82
70300;HTU21D;57704;51.112;5.878;2022-10-23T01:57:14;14.26;77.89
70300;HTU21D;57704;51.112;5.878;2022-10-23T02:00:08;14.29;77.86
70300;HTU21D;57704;51.112;5.878;2022-10-23T02:02:51;14.30;77.79
70300;HTU21D;57704;51.112;5.878;2022-10-23T02:05:23;14.33;77.80
70300;HTU21D;57704;51.112;5.878;2022-10-23T02:07:50;14.38;77.69
70300;HTU21D;57704;51.112;5.878;2022-10-23T02:10:19;14.42;77.49
70300;HTU21D;57704;51.112;5.878;2022-10-23T02:13:09;14.44;77.34
70300;HTU21D;57704;51.112;5.878;2022-10-23T02:22:07;14.56;77.01
70300;HTU21D;57704;51.112;5.878;2022-10-23T02:24:14;14.60;76.88
70300;HTU21D;57704;51.112;5.878;2022-10-23T02:26:54;14.64;76.70
70300;HTU21D;57704;51.112;5.878;2022-10-23T02:29:48;14.66;76.54
70300;HTU21D;57704;51.112;5.878;2022-10-23T02:32:20;14.69;76.44
70300;HTU21D;57704;51.112;5.878;2022-10-23T02:34:49;14.72;76.22
70300;HTU21D;57704;51.112;5.878;2022-10-23T02:37:15;14.72;76.10
70300;HTU21D;57704;51.112;5.878;2022-10-23T02:39:41;14.73;76.19
70300;HTU21D;57704;51.112;5.878;2022-10-23T02:45:11;14.77;76.04
70300;HTU21D;57704;51.112;5.878;2022-10-23T03:00:56;14.54;76.81
70300;HTU21D;57704;51.112;5.878;2022-10-23T03:03:36;14.44;77.28
70300;HTU21D;57704;51.112;5.878;2022-10-23T03:06:05;14.35;77.72
70300;HTU21D;57704;51.112;5.878;2022-10-23T03:08:43;14.35;77.99
70300;HTU21D;57704;51.112;5.878;2022-10-23T03:11:10;14.29;78.19
70300;HTU21D;57704;51.112;5.878;2022-10-23T03:13:36;14.26;78.40
70300;HTU21D;57704;51.112;5.878;2022-10-23T03:16:02;14.27;78.57
70300;HTU21D;57704;51.112;5.878;2022-10-23T03:18:28;14.29;78.66
70300;HTU21D;57704;51.112;5.878;2022-10-23T03:20:57;14.30;78.74
70300;HTU21D;57704;51.112;5.878;2022-10-23T03:23:23;14.36;78.74
70300;HTU21D;57704;51.112;5.878;2022-10-23T03:25:51;14.40;78.63
70300;HTU21D;57704;51.112;5.878;2022-10-23T03:28:31;14.44;78.54
70300;HTU21D;57704;51.112;5.878;2022-10-23T03:30:58;14.52;78.44
70300;HTU21D;57704;51.112;5.878;2022-10-23T03:33:27;14.56;78.30
70300;HTU21D;57704;51.112;5.878;2022-10-23T03:35:53;14.62;78.08
70300;HTU21D;57704;51.112;5.878;2022-10-23T03:38:19;14.63;77.97
70300;HTU21D;57704;51.112;5.878;2022-10-23T03:40:46;14.63;77.98
70300;HTU21D;57704;51.112;5.878;2022-10-23T03:43:12;14.66;77.91
70300;HTU21D;57704;51.112;5.878;2022-10-23T03:45:40;14.65;77.91
70300;HTU21D;57704;51.112;5.878;2022-10-23T03:48:06;14.66;78.02
70300;HTU21D;57704;51.112;5.878;2022-10-23T03:50:34;14.66;77.98
70300;HTU21D;57704;51.112;5.878;2022-10-23T03:53:01;14.67;78.05
70300;HTU21D;57704;51.112;5.878;2022-10-23T03:55:27;14.66;78.06
70300;HTU21D;57704;51.112;5.878;2022-10-23T03:57:53;14.63;78.11
70300;HTU21D;57704;51.112;5.878;2022-10-23T04:00:20;14.59;78.30
70300;HTU21D;57704;51.112;5.878;2022-10-23T04:02:47;14.58;78.51
70300;HTU21D;57704;51.112;5.878;2022-10-23T04:05:13;14.56;78.63
70300;HTU21D;57704;51.112;5.878;2022-10-23T04:07:47;14.55;78.80
70300;HTU21D;57704;51.112;5.878;2022-10-23T04:10:13;14.56;78.88
70300;HTU21D;57704;51.112;5.878;2022-10-23T04:12:39;14.58;78.92
70300;HTU21D;57704;51.112;5.878;2022-10-23T04:15:06;14.56;78.94
70300;HTU21D;57704;51.112;5.878;2022-10-23T04:17:32;14.56;79.05
70300;HTU21D;57704;51.112;5.878;2022-10-23T04:19:58;14.55;79.13
70300;HTU21D;57704;51.112;5.878;2022-10-23T04:22:25;14.56;79.24
70300;HTU21D;57704;51.112;5.878;2022-10-23T04:24:53;14.56;79.33
70300;HTU21D;57704;51.112;5.878;2022-10-23T04:27:19;14.54;79.40
70300;HTU21D;57704;51.112;5.878;2022-10-23T04:29:45;14.52;79.58
70300;HTU21D;57704;51.112;5.878;2022-10-23T04:32:12;14.52;79.66
70300;HTU21D;57704;51.112;5.878;2022-10-23T04:34:38;14.55;79.72
70300;HTU21D;57704;51.112;5.878;2022-10-23T04:37:04;14.55;79.79
70300;HTU21D;57704;51.112;5.878;2022-10-23T04:39:30;14.54;79.95
70300;HTU21D;57704;51.112;5.878;2022-10-23T04:41:56;14.56;80.03
70300;HTU21D;57704;51.112;5.878;2022-10-23T04:44:24;14.55;80.12
70300;HTU21D;57704;51.112;5.878;2022-10-23T04:46:50;14.58;80.23
70300;HTU21D;57704;51.112;5.878;2022-10-23T04:49:16;14.59;80.17
70300;HTU21D;57704;51.112;5.878;2022-10-23T04:52:02;14.62;80.20
70300;HTU21D;57704;51.112;5.878;2022-10-23T04:54:51;14.63;80.27
70300;HTU21D;57704;51.112;5.878;2022-10-23T04:57:21;14.65;80.23
70300;HTU21D;57704;51.112;5.878;2022-10-23T05:00:10;14.67;80.17
70300;HTU21D;57704;51.112;5.878;2022-10-23T05:02:48;14.69;80.06
70300;HTU21D;57704;51.112;5.878;2022-10-23T05:05:16;14.67;80.11
70300;HTU21D;57704;51.112;5.878;2022-10-23T05:08:01;14.68;80.13
70300;HTU21D;57704;51.112;5.878;2022-10-23T05:10:44;14.68;80.17
70300;HTU21D;57704;51.112;5.878;2022-10-23T05:13:13;14.65;80.20
70300;HTU21D;57704;51.112;5.878;2022-10-23T05:15:39;14.65;80.32
70300;HTU21D;57704;51.112;5.878;2022-10-23T05:20:44;14.64;80.32
70300;HTU21D;57704;51.112;5.878;2022-10-23T05:23:15;14.66;80.23
70300;HTU21D;57704;51.112;5.878;2022-10-23T05:25:51;14.64;80.30
70300;HTU21D;57704;51.112;5.878;2022-10-23T05:28:18;14.65;80.31
70300;HTU21D;57704;51.112;5.878;2022-10-23T05:30:45;14.63;80.32
70300;HTU21D;57704;51.112;5.878;2022-10-23T05:33:11;14.62;80.35
70300;HTU21D;57704;51.112;5.878;2022-10-23T05:35:43;14.63;80.38
70300;HTU21D;57704;51.112;5.878;2022-10-23T05:38:12;14.62;80.46
70300;HTU21D;57704;51.112;5.878;2022-10-23T05:40:39;14.62;80.46
70300;HTU21D;57704;51.112;5.878;2022-10-23T05:43:07;14.58;80.52
70300;HTU21D;57704;51.112;5.878;2022-10-23T05:45:46;14.59;80.57
70300;HTU21D;57704;51.112;5.878;2022-10-23T05:48:38;14.60;80.60
70300;HTU21D;57704;51.112;5.878;2022-10-23T05:51:09;14.60;80.61
70300;HTU21D;57704;51.112;5.878;2022-10-23T05:53:46;14.62;80.54
70300;HTU21D;57704;51.112;5.878;2022-10-23T05:56:34;14.58;80.59
70300;HTU21D;57704;51.112;5.878;2022-10-23T05:59:19;14.60;80.62
70300;HTU21D;57704;51.112;5.878;2022-10-23T06:01:47;14.59;80.59
70300;HTU21D;57704;51.112;5.878;2022-10-23T06:04:18;14.59;80.60
70300;HTU21D;57704;51.112;5.878;2022-10-23T06:07:11;14.58;80.63
70300;HTU21D;57704;51.112;5.878;2022-10-23T06:09:37;14.62;80.57
70300;HTU21D;57704;51.112;5.878;2022-10-23T06:12:03;14.62;80.59
70300;HTU21D;57704;51.112;5.878;2022-10-23T06:14:31;14.65;80.60
70300;HTU21D;57704;51.112;5.878;2022-10-23T06:16:57;14.66;80.57
70300;HTU21D;57704;51.112;5.878;2022-10-23T06:19:24;14.66;80.62
70300;HTU21D;57704;51.112;5.878;2022-10-23T06:21:53;14.69;80.66
70300;HTU21D;57704;51.112;5.878;2022-10-23T06:24:25;14.72;80.64
70300;HTU21D;57704;51.112;5.878;2022-10-23T06:26:56;14.77;80.50
70300;HTU21D;57704;51.112;5.878;2022-10-23T06:29:42;14.77;80.45
70300;HTU21D;57704;51.112;5.878;2022-10-23T06:32:08;14.78;80.43
70300;HTU21D;57704;51.112;5.878;2022-10-23T06:34:35;14.80;80.42
70300;HTU21D;57704;51.112;5.878;2022-10-23T06:37:03;14.79;80.43
70300;HTU21D;57704;51.112;5.878;2022-10-23T06:39:44;14.79;80.47
70300;HTU21D;57704;51.112;5.878;2022-10-23T06:42:29;14.82;80.52
70300;HTU21D;57704;51.112;5.878;2022-10-23T06:44:56;14.86;80.48
70300;HTU21D;57704;51.112;5.878;2022-10-23T06:47:41;14.88;80.38
70300;HTU21D;57704;51.112;5.878;2022-10-23T06:50:26;14.92;80.28
70300;HTU21D;57704;51.112;5.878;2022-10-23T06:52:56;14.93;80.33
70300;HTU21D;57704;51.112;5.878;2022-10-23T06:55:22;14.98;80.39
70300;HTU21D;57704;51.112;5.878;2022-10-23T06:57:48;15.03;80.27
70300;HTU21D;57704;51.112;5.878;2022-10-23T07:00:14;15.07;80.20
70300;HTU21D;57704;51.112;5.878;2022-10-23T07:02:59;15.14;80.05
70300;HTU21D;57704;51.112;5.878;2022-10-23T07:05:25;15.21;79.88
70300;HTU21D;57704;51.112;5.878;2022-10-23T07:07:51;15.27;79.88
70300;HTU21D;57704;51.112;5.878;2022-10-23T07:10:23;15.36;79.69
70300;HTU21D;57704;51.112;5.878;2022-10-23T07:13:00;15.47;79.71
70300;HTU21D;57704;51.112;5.878;2022-10-23T07:15:37;15.71;79.62
70300;HTU21D;57704;51.112;5.878;2022-10-23T07:18:06;16.10;79.52
70300;HTU21D;57704;51.112;5.878;2022-10-23T07:21:02;16.60;78.02
70300;HTU21D;57704;51.112;5.878;2022-10-23T07:23:29;16.93;76.67
70300;HTU21D;57704;51.112;5.878;2022-10-23T07:26:02;17.20;76.04
70300;HTU21D;57704;51.112;5.878;2022-10-23T07:28:31;17.55;75.01
70300;HTU21D;57704;51.112;5.878;2022-10-23T07:30:58;17.98;74.58
70300;HTU21D;57704;51.112;5.878;2022-10-23T07:33:35;18.63;74.37
70300;HTU21D;57704;51.112;5.878;2022-10-23T07:36:08;19.75;72.30
70300;HTU21D;57704;51.112;5.878;2022-10-23T07:38:35;20.53;67.93
70300;HTU21D;57704;51.112;5.878;2022-10-23T07:41:07;20.80;66.14
70300;HTU21D;57704;51.112;5.878;2022-10-23T07:43:37;21.14;65.07
70300;HTU21D;57704;51.112;5.878;2022-10-23T07:46:04;21.45;63.56
70300;HTU21D;57704;51.112;5.878;2022-10-23T07:48:37;21.45;62.38
70300;HTU21D;57704;51.112;5.878;2022-10-23T07:51:07;21.31;62.79
70300;HTU21D;57704;51.112;5.878;2022-10-23T07:53:41;21.35;62.86
70300;HTU21D;57704;51.112;5.878;2022-10-23T07:56:25;21.30;62.15
70300;HTU21D;57704;51.112;5.878;2022-10-23T07:59:11;21.15;62.30
70300;HTU21D;57704;51.112;5.878;2022-10-23T08:01:42;20.96;61.99
70300;HTU21D;57704;51.112;5.878;2022-10-23T08:04:09;20.62;62.86
70300;HTU21D;57704;51.112;5.878;2022-10-23T08:06:42;20.29;63.27
70300;HTU21D;57704;51.112;5.878;2022-10-23T08:09:08;19.86;63.73
70300;HTU21D;57704;51.112;5.878;2022-10-23T08:11:41;19.43;64.56
70300;HTU21D;57704;51.112;5.878;2022-10-23T08:14:09;18.96;65.72
70300;HTU21D;57704;51.112;5.878;2022-10-23T08:16:37;18.62;66.73
70300;HTU21D;57704;51.112;5.878;2022-10-23T08:19:16;18.29;67.86
70300;HTU21D;57704;51.112;5.878;2022-10-23T08:21:44;18.17;68.43
70300;HTU21D;57704;51.112;5.878;2022-10-23T08:24:11;18.03;69.10
70300;HTU21D;57704;51.112;5.878;2022-10-23T08:26:39;17.94;69.65
70300;HTU21D;57704;51.112;5.878;2022-10-23T08:29:07;17.88;70.00
70300;HTU21D;57704;51.112;5.878;2022-10-23T08:31:34;17.81;70.61
70300;HTU21D;57704;51.112;5.878;2022-10-23T08:34:26;17.89;70.85
70300;HTU21D;57704;51.112;5.878;2022-10-23T08:36:53;17.89;71.07
70300;HTU21D;57704;51.112;5.878;2022-10-23T08:39:20;17.95;71.04
70300;HTU21D;57704;51.112;5.878;2022-10-23T08:42:01;17.95;70.93
70300;HTU21D;57704;51.112;5.878;2022-10-23T08:47:37;17.95;70.99
70300;HTU21D;57704;51.112;5.878;2022-10-23T08:50:27;17.79;71.39
70300;HTU21D;57704;51.112;5.878;2022-10-23T08:53:05;17.81;71.61
70300;HTU21D;57704;51.112;5.878;2022-10-23T08:55:42;17.77;71.67
70300;HTU21D;57704;51.112;5.878;2022-10-23T08:58:21;17.74;72.04
70300;HTU21D;57704;51.112;5.878;2022-10-23T09:00:50;17.74;72.25
70300;HTU21D;57704;51.112;5.878;2022-10-23T09:03:17;17.77;72.54
70300;HTU21D;57704;51.112;5.878;2022-10-23T09:06:07;17.88;72.62
70300;HTU21D;57704;51.112;5.878;2022-10-23T09:08:49;18.00;72.48
70300;HTU21D;57704;51.112;5.878;2022-10-23T09:19:30;18.48;71.13
70300;HTU21D;57704;51.112;5.878;2022-10-23T09:21:58;18.47;71.11
70300;HTU21D;57704;51.112;5.878;2022-10-23T09:24:25;18.50;70.90
70300;HTU21D;57704;51.112;5.878;2022-10-23T09:26:57;18.47;71.15
70300;HTU21D;57704;51.112;5.878;2022-10-23T09:29:29;18.48;71.05
70300;HTU21D;57704;51.112;5.878;2022-10-23T09:32:00;18.46;71.26
70300;HTU21D;57704;51.112;5.878;2022-10-23T09:34:32;18.51;70.84
70300;HTU21D;57704;51.112;5.878;2022-10-23T09:37:26;18.41;71.06
70300;HTU21D;57704;51.112;5.878;2022-10-23T09:40:18;18.38;71.05
70300;HTU21D;57704;51.112;5.878;2022-10-23T09:43:00;18.26;71.51
70300;HTU21D;57704;51.112;5.878;2022-10-23T09:45:31;18.28;71.72
70300;HTU21D;57704;51.112;5.878;2022-10-23T09:50:29;18.41;71.68
70300;HTU21D;57704;51.112;5.878;2022-10-23T09:52:56;18.50;71.61
70300;HTU21D;57704;51.112;5.878;2022-10-23T09:55:25;18.51;71.55
70300;HTU21D;57704;51.112;5.878;2022-10-23T09:57:53;18.61;71.39
70300;HTU21D;57704;51.112;5.878;2022-10-23T10:00:22;18.57;71.48
70300;HTU21D;57704;51.112;5.878;2022-10-23T10:05:42;18.59;71.61
70300;HTU21D;57704;51.112;5.878;2022-10-23T10:08:41;18.61;71.75
70300;HTU21D;57704;51.112;5.878;2022-10-23T10:14:12;18.57;71.81
70300;HTU21D;57704;51.112;5.878;2022-10-23T10:22:38;18.67;72.05
70300;HTU21D;57704;51.112;5.878;2022-10-23T10:31:22;18.79;72.15
70300;HTU21D;57704;51.112;5.878;2022-10-23T10:51:06;19.14;71.71
70300;HTU21D;57704;51.112;5.878;2022-10-23T10:56:42;19.20;71.74
70300;HTU21D;57704;51.112;5.878;2022-10-23T11:01:59;19.36;71.38
70300;HTU21D;57704;51.112;5.878;2022-10-23T11:04:51;19.53;70.98
70300;HTU21D;57704;51.112;5.878;2022-10-23T11:07:22;19.69;70.07
70300;HTU21D;57704;51.112;5.878;2022-10-23T11:09:51;19.72;70.11
70300;HTU21D;57704;51.112;5.878;2022-10-23T11:12:23;19.84;69.82
70300;HTU21D;57704;51.112;5.878;2022-10-23T11:14:50;20.06;68.62
70300;HTU21D;57704;51.112;5.878;2022-10-23T11:17:38;20.18;68.71
70300;HTU21D;57704;51.112;5.878;2022-10-23T11:31:44;21.07;65.72
70300;HTU21D;57704;51.112;5.878;2022-10-23T11:37:02;21.52;64.28
70300;HTU21D;57704;51.112;5.878;2022-10-23T11:39:32;21.54;63.82
70300;HTU21D;57704;51.112;5.878;2022-10-23T11:52:36;21.54;63.37
70300;HTU21D;57704;51.112;5.878;2022-10-23T11:55:20;21.60;62.90
70300;HTU21D;57704;51.112;5.878;2022-10-23T11:58:12;21.60;63.06
70300;HTU21D;57704;51.112;5.878;2022-10-23T12:00:58;21.58;63.50
70300;HTU21D;57704;51.112;5.878;2022-10-23T12:06:30;21.45;63.43
70300;HTU21D;57704;51.112;5.878;2022-10-23T12:09:17;21.40;63.58
70300;HTU21D;57704;51.112;5.878;2022-10-23T12:11:48;21.36;64.03
70300;HTU21D;57704;51.112;5.878;2022-10-23T12:14:33;21.46;64.06
70300;HTU21D;57704;51.112;5.878;2022-10-23T12:17:00;21.59;63.96
70300;HTU21D;57704;51.112;5.878;2022-10-23T12:22:02;21.76;63.62
70300;HTU21D;57704;51.112;5.878;2022-10-23T12:24:55;21.83;63.60
70300;HTU21D;57704;51.112;5.878;2022-10-23T12:27:36;21.87;63.31
70300;HTU21D;57704;51.112;5.878;2022-10-23T12:30:18;21.85;63.08
70300;HTU21D;57704;51.112;5.878;2022-10-23T12:40:44;21.82;63.42
70300;HTU21D;57704;51.112;5.878;2022-10-23T12:43:32;21.83;63.38
70300;HTU21D;57704;51.112;5.878;2022-10-23T12:48:52;21.81;63.45
70300;HTU21D;57704;51.112;5.878;2022-10-23T12:51:25;21.77;63.32
70300;HTU21D;57704;51.112;5.878;2022-10-23T12:53:51;21.75;63.45
70300;HTU21D;57704;51.112;5.878;2022-10-23T12:56:18;21.70;63.78
70300;HTU21D;57704;51.112;5.878;2022-10-23T12:58:48;21.68;63.92
70300;HTU21D;57704;51.112;5.878;2022-10-23T13:01:31;21.65;63.94
70300;HTU21D;57704;51.112;5.878;2022-10-23T13:04:20;21.66;64.21
70300;HTU21D;57704;51.112;5.878;2022-10-23T13:06:49;21.69;64.21
70300;HTU21D;57704;51.112;5.878;2022-10-23T13:12:24;21.68;64.43
70300;HTU21D;57704;51.112;5.878;2022-10-23T13:17:42;21.77;64.50
70300;HTU21D;57704;51.112;5.878;2022-10-23T13:22:57;21.89;64.57
70300;HTU21D;57704;51.112;5.878;2022-10-23T13:25:25;21.95;64.42
70300;HTU21D;57704;51.112;5.878;2022-10-23T13:30:36;22.06;64.30
70300;HTU21D;57704;51.112;5.878;2022-10-23T13:35:43;22.05;64.15
70300;HTU21D;57704;51.112;5.878;2022-10-23T13:38:33;21.97;64.47
70300;HTU21D;57704;51.112;5.878;2022-10-23T13:41:02;21.96;64.70
70300;HTU21D;57704;51.112;5.878;2022-10-23T13:43:30;21.95;64.79
70300;HTU21D;57704;51.112;5.878;2022-10-23T13:45:58;21.91;65.11
70300;HTU21D;57704;51.112;5.878;2022-10-23T13:48:24;21.90;65.10
70300;HTU21D;57704;51.112;5.878;2022-10-23T13:50:51;21.89;65.33
70300;HTU21D;57704;51.112;5.878;2022-10-23T13:53:18;21.85;65.44
70300;HTU21D;57704;51.112;5.878;2022-10-23T13:55:48;21.83;65.72
70300;HTU21D;57704;51.112;5.878;2022-10-23T13:58:15;21.87;65.65
70300;HTU21D;57704;51.112;5.878;2022-10-23T14:00:50;21.81;65.88
70300;HTU21D;57704;51.112;5.878;2022-10-23T14:03:16;21.83;65.96
70300;HTU21D;57704;51.112;5.878;2022-10-23T14:05:43;21.85;66.08
70300;HTU21D;57704;51.112;5.878;2022-10-23T14:08:09;21.92;65.98
70300;HTU21D;57704;51.112;5.878;2022-10-23T14:10:35;21.92;66.00
70300;HTU21D;57704;51.112;5.878;2022-10-23T14:13:01;21.94;66.07
70300;HTU21D;57704;51.112;5.878;2022-10-23T14:15:27;21.99;66.07
70300;HTU21D;57704;51.112;5.878;2022-10-23T14:17:53;21.99;66.11
70300;HTU21D;57704;51.112;5.878;2022-10-23T14:20:20;21.99;66.16
70300;HTU21D;57704;51.112;5.878;2022-10-23T14:22:46;21.95;66.34
70300;HTU21D;57704;51.112;5.878;2022-10-23T14:25:12;21.93;66.40
70300;HTU21D;57704;51.112;5.878;2022-10-23T14:27:38;21.91;66.64
70300;HTU21D;57704;51.112;5.878;2022-10-23T14:30:04;21.89;66.71
70300;HTU21D;57704;51.112;5.878;2022-10-23T14:32:31;21.85;66.82
70300;HTU21D;57704;51.112;5.878;2022-10-23T14:34:57;21.78;67.08
70300;HTU21D;57704;51.112;5.878;2022-10-23T14:37:23;21.73;67.29
70300;HTU21D;57704;51.112;5.878;2022-10-23T14:39:49;21.68;67.58
70300;HTU21D;57704;51.112;5.878;2022-10-23T14:42:16;21.61;67.86
70300;HTU21D;57704;51.112;5.878;2022-10-23T14:44:42;21.52;68.13
70300;HTU21D;57704;51.112;5.878;2022-10-23T14:47:08;21.44;68.45
70300;HTU21D;57704;51.112;5.878;2022-10-23T14:49:34;21.36;68.80
70300;HTU21D;57704;51.112;5.878;2022-10-23T14:52:03;21.30;69.03
70300;HTU21D;57704;51.112;5.878;2022-10-23T14:54:30;21.27;69.21
70300;HTU21D;57704;51.112;5.878;2022-10-23T14:56:59;21.25;69.32
70300;HTU21D;57704;51.112;5.878;2022-10-23T14:59:25;21.25;69.39
70300;HTU21D;57704;51.112;5.878;2022-10-23T15:01:51;21.22;69.48
70300;HTU21D;57704;51.112;5.878;2022-10-23T15:04:17;21.22;69.51
70300;HTU21D;57704;51.112;5.878;2022-10-23T15:06:44;21.23;69.51
70300;HTU21D;57704;51.112;5.878;2022-10-23T15:09:12;21.20;69.48
70300;HTU21D;57704;51.112;5.878;2022-10-23T15:11:38;21.18;69.42
70300;HTU21D;57704;51.112;5.878;2022-10-23T15:14:05;21.18;69.05
70300;HTU21D;57704;51.112;5.878;2022-10-23T15:16:32;21.16;68.67
70300;HTU21D;57704;51.112;5.878;2022-10-23T15:18:58;21.16;68.13
70300;HTU21D;57704;51.112;5.878;2022-10-23T15:21:24;21.14;67.50
70300;HTU21D;57704;51.112;5.878;2022-10-23T15:23:50;21.13;67.15
70300;HTU21D;57704;51.112;5.878;2022-10-23T15:26:19;21.15;66.43
70300;HTU21D;57704;51.112;5.878;2022-10-23T15:28:53;21.19;66.03
70300;HTU21D;57704;51.112;5.878;2022-10-23T15:33:58;21.18;65.68
70300;HTU21D;57704;51.112;5.878;2022-10-23T15:36:25;21.18;65.45
70300;HTU21D;57704;51.112;5.878;2022-10-23T15:38:51;21.13;65.33
70300;HTU21D;57704;51.112;5.878;2022-10-23T15:41:30;21.11;65.21
70300;HTU21D;57704;51.112;5.878;2022-10-23T15:43:59;21.11;64.79
70300;HTU21D;57704;51.112;5.878;2022-10-23T15:46:25;21.05;64.88
70300;HTU21D;57704;51.112;5.878;2022-10-23T15:48:52;21.05;64.92
70300;HTU21D;57704;51.112;5.878;2022-10-23T15:51:18;20.91;65.64
70300;HTU21D;57704;51.112;5.878;2022-10-23T15:53:44;20.55;67.46
70300;HTU21D;57704;51.112;5.878;2022-10-23T15:56:10;20.09;69.61
70300;HTU21D;57704;51.112;5.878;2022-10-23T15:58:36;19.63;71.05
70300;HTU21D;57704;51.112;5.878;2022-10-23T16:01:04;19.30;72.96
70300;HTU21D;57704;51.112;5.878;2022-10-23T16:03:35;19.03;73.82
70300;HTU21D;57704;51.112;5.878;2022-10-23T16:06:07;18.85;74.99
70300;HTU21D;57704;51.112;5.878;2022-10-23T16:08:34;18.78;75.59
70300;HTU21D;57704;51.112;5.878;2022-10-23T16:11:01;18.74;75.86
70300;HTU21D;57704;51.112;5.878;2022-10-23T16:13:27;18.67;76.19
70300;HTU21D;57704;51.112;5.878;2022-10-23T16:15:54;18.69;76.47
70300;HTU21D;57704;51.112;5.878;2022-10-23T16:18:22;18.65;76.50
70300;HTU21D;57704;51.112;5.878;2022-10-23T16:20:48;18.62;76.89
70300;HTU21D;57704;51.112;5.878;2022-10-23T16:23:20;18.64;76.75
70300;HTU21D;57704;51.112;5.878;2022-10-23T16:25:46;18.61;76.89
70300;HTU21D;57704;51.112;5.878;2022-10-23T16:28:13;18.61;76.88
70300;HTU21D;57704;51.112;5.878;2022-10-23T16:30:40;18.63;76.95
70300;HTU21D;57704;51.112;5.878;2022-10-23T16:33:07;18.62;77.05
70300;HTU21D;57704;51.112;5.878;2022-10-23T16:35:33;18.59;77.03
70300;HTU21D;57704;51.112;5.878;2022-10-23T16:38:07;18.59;77.07
70300;HTU21D;57704;51.112;5.878;2022-10-23T16:40:33;18.63;77.01
70300;HTU21D;57704;51.112;5.878;2022-10-23T16:43:37;18.62;77.21
70300;HTU21D;57704;51.112;5.878;2022-10-23T16:46:17;18.63;77.15
70300;HTU21D;57704;51.112;5.878;2022-10-23T16:48:44;18.61;77.21
70300;HTU21D;57704;51.112;5.878;2022-10-23T16:51:16;18.62;77.21
70300;HTU21D;57704;51.112;5.878;2022-10-23T16:53:45;18.64;77.08
70300;HTU21D;57704;51.112;5.878;2022-10-23T16:56:14;18.66;76.95
70300;HTU21D;57704;51.112;5.878;2022-10-23T16:58:42;18.67;77.07
70300;HTU21D;57704;51.112;5.878;2022-10-23T17:01:14;18.65;76.99
70300;HTU21D;57704;51.112;5.878;2022-10-23T17:03:43;18.66;76.98
70300;HTU21D;57704;51.112;5.878;2022-10-23T17:06:12;18.66;76.93
70300;HTU21D;57704;51.112;5.878;2022-10-23T17:08:39;18.68;76.85
70300;HTU21D;57704;51.112;5.878;2022-10-23T17:11:09;18.69;76.69
70300;HTU21D;57704;51.112;5.878;2022-10-23T17:13:37;18.71;76.63
70300;HTU21D;57704;51.112;5.878;2022-10-23T17:18:33;18.71;76.39
70300;HTU21D;57704;51.112;5.878;2022-10-23T17:20:59;18.68;76.49
70300;HTU21D;57704;51.112;5.878;2022-10-23T17:23:27;18.69;76.41
70300;HTU21D;57704;51.112;5.878;2022-10-23T17:25:55;18.69;76.33
70300;HTU21D;57704;51.112;5.878;2022-10-23T17:28:22;18.71;76.17
70300;HTU21D;57704;51.112;5.878;2022-10-23T17:30:49;18.68;76.16
70300;HTU21D;57704;51.112;5.878;2022-10-23T17:33:16;18.71;75.96
70300;HTU21D;57704;51.112;5.878;2022-10-23T17:35:42;18.71;75.81
70300;HTU21D;57704;51.112;5.878;2022-10-23T17:38:11;18.72;75.67
70300;HTU21D;57704;51.112;5.878;2022-10-23T17:40:38;18.77;75.25
70300;HTU21D;57704;51.112;5.878;2022-10-23T17:43:04;18.74;75.21
70300;HTU21D;57704;51.112;5.878;2022-10-23T17:45:33;18.77;75.08
70300;HTU21D;57704;51.112;5.878;2022-10-23T17:48:00;18.77;74.87
70300;HTU21D;57704;51.112;5.878;2022-10-23T17:50:26;18.84;74.34
70300;HTU21D;57704;51.112;5.878;2022-10-23T17:52:52;18.86;74.02
70300;HTU21D;57704;51.112;5.878;2022-10-23T17:55:18;18.88;73.63
70300;HTU21D;57704;51.112;5.878;2022-10-23T17:57:44;18.89;73.48
70300;HTU21D;57704;51.112;5.878;2022-10-23T18:00:13;18.91;73.15
70300;HTU21D;57704;51.112;5.878;2022-10-23T18:02:40;18.89;72.93
70300;HTU21D;57704;51.112;5.878;2022-10-23T18:05:07;18.92;72.75
70300;HTU21D;57704;51.112;5.878;2022-10-23T18:07:33;18.95;72.25
70300;HTU21D;57704;51.112;5.878;2022-10-23T18:09:59;18.98;72.00
70300;HTU21D;57704;51.112;5.878;2022-10-23T18:12:25;19.02;71.45
70300;HTU21D;57704;51.112;5.878;2022-10-23T18:14:52;19.07;71.26
70300;HTU21D;57704;51.112;5.878;2022-10-23T18:17:18;19.05;71.17